createdAt,value
2022-11-04T00:01:22.703Z,100399.13
2022-11-04T00:06:44.727Z,100397.59
2022-11-04T00:12:06.533Z,100400.25
2022-11-04T00:17:28.341Z,100382.19
2022-11-04T00:22:50.192Z,100385.75
2022-11-04T00:28:11.927Z,100376.53
2022-11-04T00:33:33.758Z,100372.91
2022-11-04T00:38:55.559Z,100327.03
2022-11-04T00:44:17.351Z,100355.75
2022-11-04T00:49:39.174Z,100336.03
2022-11-04T00:55:01.007Z,100336.13
2022-11-04T01:00:22.872Z,100328.38
2022-11-04T01:05:44.707Z,100315.47
2022-11-04T01:11:08.841Z,100307.97
2022-11-04T01:16:31.684Z,100298.34
2022-11-04T01:21:53.616Z,100280.53
2022-11-04T01:27:15.435Z,100288.16
2022-11-04T01:32:37.252Z,100275.19
2022-11-04T01:37:59.423Z,100277.53
2022-11-04T01:43:22.810Z,100264.66
2022-11-04T01:48:45.380Z,100256.13
2022-11-04T01:54:09.062Z,100241.50
2022-11-04T01:59:35.831Z,100236.22
2022-11-04T02:04:57.694Z,100240.41
2022-11-04T02:10:22.726Z,100214.72
2022-11-04T02:16:11.550Z,100221.47
2022-11-04T02:22:01.273Z,100212.94
2022-11-04T02:27:41.738Z,100187.31
2022-11-04T02:33:20.648Z,100189.00
2022-11-04T02:38:53.624Z,100188.09
2022-11-04T02:44:24.620Z,100182.72
2022-11-04T02:49:52.148Z,100176.56
2022-11-04T02:55:22.802Z,100173.72
2022-11-04T03:00:46.636Z,100168.91
2022-11-04T03:06:13.195Z,100167.16
2022-11-04T03:11:36.239Z,100163.22
2022-11-04T03:17:03.093Z,100153.78
2022-11-04T03:22:36.517Z,100153.69
2022-11-04T03:28:18.928Z,100160.41
2022-11-04T03:33:43.381Z,100159.41
2022-11-04T03:39:05.592Z,100139.13
2022-11-04T03:44:29.463Z,100139.75
2022-11-04T03:50:14.325Z,100138.25
2022-11-04T03:55:55.018Z,100142.47
2022-11-04T04:01:38.376Z,100136.50
2022-11-04T04:07:16.387Z,100124.06
2022-11-04T04:12:41.406Z,100111.19
2022-11-04T04:18:09.166Z,100117.78
2022-11-04T04:23:34.409Z,100102.56
2022-11-04T04:28:58.971Z,100110.28
2022-11-04T04:34:27.069Z,100112.72
2022-11-04T04:39:53.137Z,100111.88
2022-11-04T04:45:40.518Z,100105.50
2022-11-04T04:51:02.429Z,100109.63
2022-11-04T04:56:24.240Z,100101.72
2022-11-04T05:01:46.242Z,100100.97
2022-11-04T05:07:08.196Z,100100.94
2022-11-04T05:12:30.026Z,100106.56
2022-11-04T05:17:59.957Z,100106.72
2022-11-04T05:23:21.876Z,100087.50
2022-11-04T05:28:43.686Z,100094.94
2022-11-04T05:34:05.516Z,100087.91
2022-11-04T05:39:27.370Z,100067.31
2022-11-04T05:44:49.197Z,100070.91
2022-11-04T05:50:11.350Z,100071.66
2022-11-04T05:55:33.159Z,100066.59
2022-11-04T06:00:55.019Z,100064.53
2022-11-04T06:06:16.908Z,100054.97
2022-11-04T06:11:39.473Z,100055.94
2022-11-04T06:17:03.378Z,100047.97
2022-11-04T06:22:25.240Z,100039.09
2022-11-04T06:27:47.349Z,100039.84
2022-11-04T06:33:09.147Z,100053.00
2022-11-04T06:38:32.971Z,100031.47
2022-11-04T06:43:54.813Z,100035.38
2022-11-04T06:49:21.783Z,100026.84
2022-11-04T06:54:43.636Z,100041.13
2022-11-04T07:00:06.591Z,100027.19
2022-11-04T07:05:28.539Z,100030.69
2022-11-04T07:10:50.363Z,100025.00
2022-11-04T07:16:13.162Z,100027.16
2022-11-04T07:21:35.040Z,100035.47
2022-11-04T07:26:56.949Z,100033.44
2022-11-04T07:32:18.829Z,100034.69
2022-11-04T07:37:40.954Z,100034.28
2022-11-04T07:43:03.030Z,100013.84
2022-11-04T07:48:24.853Z,100022.13
2022-11-04T07:53:46.899Z,100012.34
2022-11-04T07:59:08.843Z,100011.41
2022-11-04T08:04:30.660Z,100010.97
2022-11-04T08:09:52.479Z,100000.22
2022-11-04T08:15:14.352Z,99994.22
2022-11-04T08:20:36.188Z,100001.69
2022-11-04T08:25:58.520Z,100007.19
2022-11-04T08:31:21.569Z,99994.34
2022-11-04T08:36:43.351Z,99995.28
2022-11-04T08:42:05.320Z,99992.13
2022-11-04T08:47:27.169Z,99973.84
2022-11-04T08:52:49.010Z,99975.19
2022-11-04T08:58:11.082Z,99986.53
2022-11-04T09:03:33.364Z,99961.13
2022-11-04T09:08:55.303Z,99956.56
2022-11-04T09:14:17.140Z,99969.25
2022-11-04T09:19:38.899Z,99955.81
2022-11-04T09:25:00.857Z,99948.50
2022-11-04T09:30:22.669Z,99950.31
2022-11-04T09:35:44.500Z,99955.53
2022-11-04T09:41:47.460Z,99955.47
2022-11-04T09:47:12.392Z,99960.50
2022-11-04T09:52:41.978Z,99945.94
2022-11-04T09:58:04.114Z,99935.78
2022-11-04T10:03:53.158Z,99934.91
2022-11-04T10:09:38.199Z,99928.59
2022-11-04T10:15:34.226Z,99920.00
2022-11-04T10:21:21.985Z,99893.69
2022-11-04T10:27:09.733Z,99897.59
2022-11-04T10:32:45.989Z,99881.94
2022-11-04T10:38:19.331Z,99882.88
2022-11-04T10:43:42.130Z,99877.34
2022-11-04T10:49:54.709Z,99865.63
2022-11-04T10:55:49.217Z,99850.25
2022-11-04T11:01:31.904Z,99844.94
2022-11-04T11:06:55.955Z,99829.13
2022-11-04T11:12:51.492Z,99843.63
2022-11-04T11:18:18.502Z,99840.63
2022-11-04T11:23:49.648Z,99824.88
2022-11-04T11:29:11.900Z,99821.44
2022-11-04T11:34:38.796Z,99815.41
2022-11-04T11:40:00.626Z,99807.34
2022-11-04T11:45:23.757Z,99806.25
2022-11-04T11:50:55.055Z,99815.09
2022-11-04T11:57:07.415Z,99813.50
2022-11-04T12:02:36.068Z,99800.78
2022-11-04T12:14:18.913Z,99799.63
2022-11-04T12:20:02.619Z,99789.91
2022-11-04T12:25:47.687Z,99784.53
2022-11-04T12:31:20.440Z,99791.84
2022-11-04T12:36:49.860Z,99779.06
2022-11-04T12:42:29.674Z,99781.75
2022-11-04T12:48:07.371Z,99784.88
2022-11-04T12:53:39.396Z,99774.41
2022-11-04T12:59:07.287Z,99773.00
2022-11-04T13:04:43.908Z,99758.16
2022-11-04T13:10:07.605Z,99780.47
2022-11-04T13:15:35.841Z,99763.84
2022-11-04T13:21:09.538Z,99767.66
2022-11-04T13:26:32.386Z,99763.19
2022-11-04T13:32:12.491Z,99767.66
2022-11-04T13:37:45.094Z,99793.50
2022-11-04T13:43:17.887Z,99784.41
2022-11-04T13:49:00.586Z,99786.28
2022-11-04T13:54:33.488Z,99788.06
2022-11-04T14:00:13.635Z,99789.97
2022-11-04T14:05:41.541Z,99789.41
2022-11-04T14:11:07.488Z,99781.09
2022-11-04T14:16:29.245Z,99802.91
2022-11-04T14:22:05.920Z,99787.56
2022-11-04T14:27:38.972Z,99781.19
2022-11-04T14:33:18.493Z,99776.72
2022-11-04T14:38:41.260Z,99797.00
2022-11-04T14:44:12.351Z,99778.91
2022-11-04T14:49:46.190Z,99775.47
2022-11-04T14:55:15.710Z,99759.69
2022-11-04T15:00:51.388Z,99762.91
2022-11-04T15:06:13.455Z,99789.94
2022-11-04T15:11:39.756Z,99790.75
2022-11-04T15:17:01.742Z,99789.66
2022-11-04T15:22:24.171Z,99778.78
2022-11-04T15:27:46.089Z,99787.50
2022-11-04T15:33:16.268Z,99792.66
2022-11-04T15:38:39.444Z,99801.44
2022-11-04T15:44:01.839Z,99804.16
2022-11-04T15:49:34.067Z,99809.72
2022-11-04T15:54:58.308Z,99801.69
2022-11-04T16:00:23.332Z,99822.69
2022-11-04T16:06:00.648Z,99812.28
2022-11-04T16:11:22.466Z,99798.88
2022-11-04T16:16:50.645Z,99804.63
2022-11-04T16:22:21.222Z,99803.91
2022-11-04T16:27:45.549Z,99811.44
2022-11-04T16:33:10.792Z,99806.25
2022-11-04T16:38:32.844Z,99813.75
2022-11-04T16:43:55.543Z,99798.97
2022-11-04T16:49:19.392Z,99802.16
2022-11-04T16:54:41.433Z,99803.78
2022-11-04T17:00:05.075Z,99799.16
2022-11-04T17:05:26.938Z,99820.59
2022-11-04T17:10:49.243Z,99809.78
2022-11-04T17:16:13.707Z,99784.34
2022-11-04T17:21:35.570Z,99779.31
2022-11-04T17:26:57.445Z,99790.72
2022-11-04T17:32:19.280Z,99777.25
2022-11-04T17:37:41.451Z,99769.81
2022-11-04T17:43:06.954Z,99760.72
2022-11-04T17:48:33.183Z,99762.28
2022-11-04T17:53:54.969Z,99774.00
2022-11-04T17:59:17.309Z,99758.13
2022-11-04T18:04:39.130Z,99762.78
2022-11-04T18:10:00.926Z,99754.56
2022-11-04T18:15:22.777Z,99740.47
2022-11-04T18:20:44.639Z,99755.25
2022-11-04T18:26:10.114Z,99743.50
2022-11-04T18:31:34.639Z,99732.09
2022-11-04T18:36:56.546Z,99753.78
2022-11-04T18:42:18.372Z,99750.25
2022-11-04T18:47:40.349Z,99750.81
2022-11-04T18:53:02.298Z,99737.41
2022-11-04T18:58:24.106Z,99747.31
2022-11-04T19:03:46.491Z,99752.31
2022-11-04T19:09:40.665Z,99741.03
2022-11-04T19:14:53.104Z,99750.47
2022-11-04T19:20:14.917Z,99754.34
2022-11-04T19:25:41.602Z,99746.88
2022-11-04T19:31:03.710Z,99747.66
2022-11-04T19:36:26.022Z,99754.53
2022-11-04T19:41:47.858Z,99747.25
2022-11-04T19:47:09.707Z,99761.59
2022-11-04T19:52:31.547Z,99766.47
2022-11-04T19:57:53.394Z,99751.00
2022-11-04T20:03:15.268Z,99742.84
2022-11-04T20:08:38.513Z,99747.47
2022-11-04T20:14:07.525Z,99746.34
2022-11-04T20:19:29.760Z,99771.66
2022-11-04T20:24:51.556Z,99763.50
2022-11-04T20:30:13.429Z,99771.34
2022-11-04T20:35:35.247Z,99758.94
2022-11-04T20:41:03.066Z,99737.97
2022-11-04T20:46:30.376Z,99765.25
2022-11-04T20:51:55.362Z,99752.94
2022-11-04T20:57:17.440Z,99756.91
2022-11-04T21:02:39.300Z,99744.38
2022-11-04T21:08:01.193Z,99756.72
2022-11-04T21:13:23.077Z,99773.63
2022-11-04T21:18:45.687Z,99770.66
2022-11-04T21:24:07.822Z,99759.06
2022-11-04T21:29:29.638Z,99753.47
2022-11-04T21:34:51.446Z,99737.03
2022-11-04T21:40:13.291Z,99744.38
2022-11-04T21:45:35.381Z,99745.06
2022-11-04T21:51:00.766Z,99734.31
2022-11-04T21:56:28.345Z,99751.16
2022-11-04T22:01:50.287Z,99746.34
2022-11-04T22:07:12.196Z,99745.28
2022-11-04T22:12:34.050Z,99745.66
2022-11-04T22:17:55.931Z,99738.16
2022-11-04T22:23:17.872Z,99748.41
2022-11-04T22:28:39.852Z,99749.03
2022-11-04T22:34:02.304Z,99752.00
2022-11-04T22:39:24.130Z,99755.13
2022-11-04T22:44:45.994Z,99730.66
2022-11-04T22:50:08.224Z,99736.38
2022-11-04T22:55:30.044Z,99748.31
2022-11-04T23:01:13.499Z,99743.91
2022-11-04T23:06:35.349Z,99762.13
2022-11-04T23:11:57.311Z,99759.13
2022-11-04T23:17:21.902Z,99769.97
2022-11-04T23:22:43.753Z,99738.22
2022-11-04T23:28:05.586Z,99754.25
2022-11-04T23:33:27.589Z,99761.13
2022-11-04T23:38:50.512Z,99747.19
2022-11-04T23:44:12.415Z,99758.88
2022-11-04T23:49:34.231Z,99755.97
2022-11-04T23:54:56.032Z,99758.22
